Time;durP1;ratioP1;P1;durP2;ratioP2;P2;SDS_P1;SDS_P2;PMS_P1;PMS_P2;Temp;Humidity;BMP_temperature;BMP_pressure;BME280_temperature;BME280_humidity;BME280_pressure;Samples;Min_cycle;Max_cycle;Signal;HPM_P1;HPM_P2
2020/11/22 00:00:54;;;;;;;11.15;7.099999;;;;;;;-2.79;60.90332;96419.84;;;;
2020/11/22 00:01:54;;;;;;;11.15;7.099999;;;;;;;-2.79;60.90332;96419.84;;;;
2020/11/22 00:02:55;;;;;;;11.15;7.099999;;;;;;;-2.79;60.90332;96419.84;;;;
2020/11/22 00:03:55;;;;;;;11.15;7.099999;;;;;;;-2.79;60.90332;96419.84;;;;
2020/11/22 00:04:56;;;;;;;11.15;7.099999;;;;;;;-2.79;60.90332;96419.84;;;;
2020/11/22 00:05:56;;;;;;;11.15;7.099999;;;;;;;-2.79;60.90332;96419.84;;;;
2020/11/22 00:06:57;;;;;;;11.15;7.099999;;;;;;;-2.79;60.90332;96419.84;;;;
2020/11/22 00:07:57;;;;;;;11.15;7.099999;;;;;;;-2.79;60.90332;96419.84;;;;
2020/11/22 00:08:58;;;;;;;11.75;7.099999;;;;;;;-2.73;60.87012;96408.32;;;;
2020/11/22 00:09:58;;;;;;;11.75;7.099999;;;;;;;-2.73;60.87012;96408.32;;;;
2020/11/22 00:10:59;;;;;;;11.75;7.099999;;;;;;;-2.73;60.87012;96408.32;;;;
2020/11/22 00:11:59;;;;;;;11.75;7.099999;;;;;;;-2.73;60.87012;96408.32;;;;
2020/11/22 00:13:00;;;;;;;11.75;7.099999;;;;;;;-2.73;60.87012;96408.32;;;;
2020/11/22 00:14:00;;;;;;;11.75;7.099999;;;;;;;-2.73;60.87012;96408.32;;;;
2020/11/22 00:15:01;;;;;;;11.75;7.099999;;;;;;;-2.73;60.87012;96408.32;;;;
2020/11/22 00:16:02;;;;;;;11.75;7.099999;;;;;;;-2.73;60.87012;96408.32;;;;
2020/11/22 00:17:02;;;;;;;11.75;7.099999;;;;;;;-2.73;60.87012;96408.32;;;;
2020/11/22 00:18:03;;;;;;;11.75;7.099999;;;;;;;-2.73;60.87012;96408.32;;;;
2020/11/22 00:19:03;;;;;;;13.95;7.299999;;;;;;;-2.74;60.9209;96400.05;;;;
2020/11/22 00:20:04;;;;;;;13.95;7.299999;;;;;;;-2.74;60.9209;96400.05;;;;
2020/11/22 00:21:07;;;;;;;13.95;7.299999;;;;;;;-2.74;60.9209;96400.05;;;;
2020/11/22 00:22:07;;;;;;;13.95;7.299999;;;;;;;-2.74;60.9209;96400.05;;;;
2020/11/22 00:23:08;;;;;;;13.95;7.299999;;;;;;;-2.74;60.9209;96400.05;;;;
2020/11/22 00:24:08;;;;;;;13.95;7.299999;;;;;;;-2.74;60.9209;96400.05;;;;
2020/11/22 00:25:09;;;;;;;13.95;7.299999;;;;;;;-2.74;60.9209;96400.05;;;;
2020/11/22 00:26:09;;;;;;;13.95;7.299999;;;;;;;-2.74;60.9209;96400.05;;;;
2020/11/22 00:27:12;;;;;;;13.95;7.299999;;;;;;;-2.74;60.9209;96400.05;;;;
2020/11/22 00:28:12;;;;;;;13.95;7.299999;;;;;;;-2.74;60.9209;96400.05;;;;
2020/11/22 00:29:13;;;;;;;13.95;7.299999;;;;;;;-2.74;60.9209;96400.05;;;;
2020/11/22 00:30:14;;;;;;;20.8;16.95;;;;;;;-2.88;61.09961;96397.64;;;;
2020/11/22 00:31:15;;;;;;;20.8;16.95;;;;;;;-2.88;61.09961;96397.64;;;;
2020/11/22 00:32:15;;;;;;;20.8;16.95;;;;;;;-2.88;61.09961;96397.64;;;;
2020/11/22 00:33:16;;;;;;;20.8;16.95;;;;;;;-2.88;61.09961;96397.64;;;;
2020/11/22 00:34:16;;;;;;;20.8;16.95;;;;;;;-2.88;61.09961;96397.64;;;;
2020/11/22 00:35:18;;;;;;;20.8;16.95;;;;;;;-2.88;61.09961;96397.64;;;;
2020/11/22 00:36:18;;;;;;;20.8;16.95;;;;;;;-2.88;61.09961;96397.64;;;;
2020/11/22 00:37:19;;;;;;;20.8;16.95;;;;;;;-2.88;61.09961;96397.64;;;;
2020/11/22 00:38:20;;;;;;;20.8;16.95;;;;;;;-2.88;61.09961;96397.64;;;;
2020/11/22 00:39:20;;;;;;;20.8;16.95;;;;;;;-2.88;61.09961;96397.64;;;;
2020/11/22 00:40:21;;;;;;;18;14.5;;;;;;;-2.92;62.34277;96393.18;;;;
2020/11/22 00:41:22;;;;;;;18;14.5;;;;;;;-2.92;62.34277;96393.18;;;;
2020/11/22 00:42:22;;;;;;;18;14.5;;;;;;;-2.92;62.34277;96393.18;;;;
2020/11/22 00:43:23;;;;;;;18;14.5;;;;;;;-2.92;62.34277;96393.18;;;;
2020/11/22 00:44:23;;;;;;;18;14.5;;;;;;;-2.92;62.34277;96393.18;;;;
2020/11/22 00:45:23;;;;;;;18;14.5;;;;;;;-2.92;62.34277;96393.18;;;;
2020/11/22 00:46:24;;;;;;;18;14.5;;;;;;;-2.92;62.34277;96393.18;;;;
2020/11/22 00:47:24;;;;;;;18;14.5;;;;;;;-2.92;62.34277;96393.18;;;;
2020/11/22 00:48:25;;;;;;;18;14.5;;;;;;;-2.92;62.34277;96393.18;;;;
2020/11/22 00:49:25;;;;;;;18;14.5;;;;;;;-2.92;62.34277;96393.18;;;;
2020/11/22 00:50:26;;;;;;;18;14.5;;;;;;;-2.92;62.34277;96393.18;;;;
2020/11/22 00:51:26;;;;;;;13.45;8.6;;;;;;;-2.91;63.18555;96389.56;;;;
2020/11/22 00:52:27;;;;;;;13.45;8.6;;;;;;;-2.91;63.18555;96389.56;;;;
2020/11/22 00:53:28;;;;;;;13.45;8.6;;;;;;;-2.91;63.18555;96389.56;;;;
2020/11/22 00:54:28;;;;;;;13.45;8.6;;;;;;;-2.91;63.18555;96389.56;;;;
2020/11/22 00:55:29;;;;;;;13.45;8.6;;;;;;;-2.91;63.18555;96389.56;;;;
2020/11/22 00:56:29;;;;;;;13.45;8.6;;;;;;;-2.91;63.18555;96389.56;;;;
2020/11/22 00:57:29;;;;;;;13.45;8.6;;;;;;;-2.91;63.18555;96389.56;;;;
2020/11/22 00:58:30;;;;;;;13.45;8.6;;;;;;;-2.91;63.18555;96389.56;;;;
2020/11/22 00:59:30;;;;;;;13.45;8.6;;;;;;;-2.91;63.18555;96389.56;;;;
2020/11/22 01:00:31;;;;;;;13.45;8.6;;;;;;;-2.91;63.18555;96389.56;;;;
2020/11/22 01:01:31;;;;;;;10.05;7.950001;;;;;;;-2.9;63.80176;96385.97;;;;
2020/11/22 01:02:32;;;;;;;10.05;7.950001;;;;;;;-2.9;63.80176;96385.97;;;;
2020/11/22 01:03:32;;;;;;;10.05;7.950001;;;;;;;-2.9;63.80176;96385.97;;;;
2020/11/22 01:04:33;;;;;;;10.05;7.950001;;;;;;;-2.9;63.80176;96385.97;;;;
2020/11/22 01:05:33;;;;;;;10.05;7.950001;;;;;;;-2.9;63.80176;96385.97;;;;
2020/11/22 01:06:34;;;;;;;10.05;7.950001;;;;;;;-2.9;63.80176;96385.97;;;;
2020/11/22 01:07:34;;;;;;;10.05;7.950001;;;;;;;-2.9;63.80176;96385.97;;;;
2020/11/22 01:08:35;;;;;;;10.05;7.950001;;;;;;;-2.9;63.80176;96385.97;;;;
2020/11/22 01:09:36;;;;;;;10.05;7.950001;;;;;;;-2.9;63.80176;96385.97;;;;
2020/11/22 01:10:36;;;;;;;10.05;7.950001;;;;;;;-2.9;63.80176;96385.97;;;;
2020/11/22 01:11:37;;;;;;;10.05;7.950001;;;;;;;-2.9;63.80176;96385.97;;;;
2020/11/22 01:12:37;;;;;;;9.35;8.000002;;;;;;;-2.9;64.52832;96371.91;;;;
2020/11/22 01:13:38;;;;;;;9.35;8.000002;;;;;;;-2.9;64.52832;96371.91;;;;
2020/11/22 01:14:39;;;;;;;9.35;8.000002;;;;;;;-2.9;64.52832;96371.91;;;;
2020/11/22 01:15:39;;;;;;;9.35;8.000002;;;;;;;-2.9;64.52832;96371.91;;;;
2020/11/22 01:16:40;;;;;;;9.35;8.000002;;;;;;;-2.9;64.52832;96371.91;;;;
2020/11/22 01:17:40;;;;;;;9.35;8.000002;;;;;;;-2.9;64.52832;96371.91;;;;
2020/11/22 01:18:41;;;;;;;9.35;8.000002;;;;;;;-2.9;64.52832;96371.91;;;;
2020/11/22 01:19:41;;;;;;;9.35;8.000002;;;;;;;-2.9;64.52832;96371.91;;;;
2020/11/22 01:20:42;;;;;;;9.35;8.000002;;;;;;;-2.9;64.52832;96371.91;;;;
2020/11/22 01:21:43;;;;;;;9.35;8.000002;;;;;;;-2.9;64.52832;96371.91;;;;
2020/11/22 01:22:43;;;;;;;9.35;8.000002;;;;;;;-2.9;64.52832;96371.91;;;;
2020/11/22 01:23:44;;;;;;;9.400002;7.25;;;;;;;-2.84;65.12109;96362.08;;;;
2020/11/22 01:24:44;;;;;;;9.400002;7.25;;;;;;;-2.84;65.12109;96362.08;;;;
2020/11/22 01:25:45;;;;;;;9.400002;7.25;;;;;;;-2.84;65.12109;96362.08;;;;
2020/11/22 01:26:45;;;;;;;9.400002;7.25;;;;;;;-2.84;65.12109;96362.08;;;;
2020/11/22 01:27:45;;;;;;;9.400002;7.25;;;;;;;-2.84;65.12109;96362.08;;;;
2020/11/22 01:28:46;;;;;;;9.400002;7.25;;;;;;;-2.84;65.12109;96362.08;;;;
2020/11/22 01:29:47;;;;;;;9.400002;7.25;;;;;;;-2.84;65.12109;96362.08;;;;
2020/11/22 01:30:47;;;;;;;9.400002;7.25;;;;;;;-2.84;65.12109;96362.08;;;;
2020/11/22 01:31:48;;;;;;;9.400002;7.25;;;;;;;-2.84;65.12109;96362.08;;;;
2020/11/22 01:32:48;;;;;;;9.400002;7.25;;;;;;;-2.84;65.12109;96362.08;;;;
2020/11/22 01:33:49;;;;;;;9.15;6.950001;;;;;;;-2.82;65.62109;96372.09;;;;
2020/11/22 01:34:50;;;;;;;9.15;6.950001;;;;;;;-2.82;65.62109;96372.09;;;;
2020/11/22 01:35:50;;;;;;;9.15;6.950001;;;;;;;-2.82;65.62109;96372.09;;;;
2020/11/22 01:36:50;;;;;;;9.15;6.950001;;;;;;;-2.82;65.62109;96372.09;;;;
2020/11/22 01:37:51;;;;;;;9.15;6.950001;;;;;;;-2.82;65.62109;96372.09;;;;
2020/11/22 01:38:52;;;;;;;9.15;6.950001;;;;;;;-2.82;65.62109;96372.09;;;;
2020/11/22 01:39:52;;;;;;;9.15;6.950001;;;;;;;-2.82;65.62109;96372.09;;;;
2020/11/22 01:40:53;;;;;;;9.15;6.950001;;;;;;;-2.82;65.62109;96372.09;;;;
2020/11/22 01:41:53;;;;;;;9.15;6.950001;;;;;;;-2.82;65.62109;96372.09;;;;
2020/11/22 01:42:54;;;;;;;9.15;6.950001;;;;;;;-2.82;65.62109;96372.09;;;;
2020/11/22 01:43:54;;;;;;;9.15;6.950001;;;;;;;-2.82;65.62109;96372.09;;;;
2020/11/22 01:44:55;;;;;;;7.5;5.799999;;;;;;;-2.87;66.04102;96368.95;;;;
2020/11/22 01:45:55;;;;;;;7.5;5.799999;;;;;;;-2.87;66.04102;96368.95;;;;
2020/11/22 01:46:56;;;;;;;7.5;5.799999;;;;;;;-2.87;66.04102;96368.95;;;;
2020/11/22 01:47:57;;;;;;;7.5;5.799999;;;;;;;-2.87;66.04102;96368.95;;;;
2020/11/22 01:48:57;;;;;;;7.5;5.799999;;;;;;;-2.87;66.04102;96368.95;;;;
2020/11/22 01:49:58;;;;;;;7.5;5.799999;;;;;;;-2.87;66.04102;96368.95;;;;
2020/11/22 01:50:59;;;;;;;7.5;5.799999;;;;;;;-2.87;66.04102;96368.95;;;;
2020/11/22 01:51:59;;;;;;;7.5;5.799999;;;;;;;-2.87;66.04102;96368.95;;;;
2020/11/22 01:53:06;;;;;;;7.5;5.799999;;;;;;;-2.87;66.04102;96368.95;;;;
2020/11/22 01:54:06;;;;;;;7.5;5.799999;;;;;;;-2.87;66.04102;96368.95;;;;
2020/11/22 01:55:07;;;;;;;7.5;5.050001;;;;;;;-2.9;66.34766;96365.73;;;;
2020/11/22 01:56:08;;;;;;;7.5;5.050001;;;;;;;-2.9;66.34766;96365.73;;;;
2020/11/22 01:57:08;;;;;;;7.5;5.050001;;;;;;;-2.9;66.34766;96365.73;;;;
2020/11/22 01:58:11;;;;;;;7.5;5.050001;;;;;;;-2.9;66.34766;96365.73;;;;
2020/11/22 01:59:11;;;;;;;7.5;5.050001;;;;;;;-2.9;66.34766;96365.73;;;;
2020/11/22 02:00:12;;;;;;;7.5;5.050001;;;;;;;-2.9;66.34766;96365.73;;;;
2020/11/22 02:01:13;;;;;;;7.5;5.050001;;;;;;;-2.9;66.34766;96365.73;;;;
2020/11/22 02:02:13;;;;;;;7.5;5.050001;;;;;;;-2.9;66.34766;96365.73;;;;
2020/11/22 02:03:14;;;;;;;7.5;5.050001;;;;;;;-2.9;66.34766;96365.73;;;;
2020/11/22 02:04:14;;;;;;;7.5;5.050001;;;;;;;-2.9;66.34766;96365.73;;;;
2020/11/22 02:05:15;;;;;;;7.5;5.050001;;;;;;;-2.9;66.34766;96365.73;;;;
2020/11/22 02:06:15;;;;;;;9.050001;6.299999;;;;;;;-2.91;65.95117;96353.05;;;;
2020/11/22 02:07:16;;;;;;;9.050001;6.299999;;;;;;;-2.91;65.95117;96353.05;;;;
2020/11/22 02:08:16;;;;;;;9.050001;6.299999;;;;;;;-2.91;65.95117;96353.05;;;;
2020/11/22 02:09:17;;;;;;;9.050001;6.299999;;;;;;;-2.91;65.95117;96353.05;;;;
2020/11/22 02:10:18;;;;;;;9.050001;6.299999;;;;;;;-2.91;65.95117;96353.05;;;;
2020/11/22 02:11:18;;;;;;;9.050001;6.299999;;;;;;;-2.91;65.95117;96353.05;;;;
2020/11/22 02:12:19;;;;;;;9.050001;6.299999;;;;;;;-2.91;65.95117;96353.05;;;;
2020/11/22 02:13:19;;;;;;;9.050001;6.299999;;;;;;;-2.91;65.95117;96353.05;;;;
2020/11/22 02:14:20;;;;;;;9.050001;6.299999;;;;;;;-2.91;65.95117;96353.05;;;;
2020/11/22 02:15:21;;;;;;;9.050001;6.299999;;;;;;;-2.91;65.95117;96353.05;;;;
2020/11/22 02:16:21;;;;;;;9.399999;6.15;;;;;;;-2.97;66.63672;96341.69;;;;
2020/11/22 02:17:22;;;;;;;9.399999;6.15;;;;;;;-2.97;66.63672;96341.69;;;;
2020/11/22 02:18:25;;;;;;;9.399999;6.15;;;;;;;-2.97;66.63672;96341.69;;;;
2020/11/22 02:19:25;;;;;;;9.399999;6.15;;;;;;;-2.97;66.63672;96341.69;;;;
2020/11/22 02:20:26;;;;;;;9.399999;6.15;;;;;;;-2.97;66.63672;96341.69;;;;
2020/11/22 02:21:26;;;;;;;9.399999;6.15;;;;;;;-2.97;66.63672;96341.69;;;;
2020/11/22 02:22:27;;;;;;;9.399999;6.15;;;;;;;-2.97;66.63672;96341.69;;;;
2020/11/22 02:23:27;;;;;;;9.399999;6.15;;;;;;;-2.97;66.63672;96341.69;;;;
2020/11/22 02:24:28;;;;;;;9.399999;6.15;;;;;;;-2.97;66.63672;96341.69;;;;
2020/11/22 02:25:28;;;;;;;9.399999;6.15;;;;;;;-2.97;66.63672;96341.69;;;;
2020/11/22 02:26:29;;;;;;;9.399999;6.15;;;;;;;-2.97;66.63672;96341.69;;;;
2020/11/22 02:27:30;;;;;;;8.4;5.9;;;;;;;-3.01;67.26563;96336.72;;;;
2020/11/22 02:28:30;;;;;;;8.4;5.9;;;;;;;-3.01;67.26563;96336.72;;;;
2020/11/22 02:29:31;;;;;;;8.4;5.9;;;;;;;-3.01;67.26563;96336.72;;;;
2020/11/22 02:30:31;;;;;;;8.4;5.9;;;;;;;-3.01;67.26563;96336.72;;;;
2020/11/22 02:31:32;;;;;;;8.4;5.9;;;;;;;-3.01;67.26563;96336.72;;;;
2020/11/22 02:32:32;;;;;;;8.4;5.9;;;;;;;-3.01;67.26563;96336.72;;;;
2020/11/22 02:33:33;;;;;;;8.4;5.9;;;;;;;-3.01;67.26563;96336.72;;;;
2020/11/22 02:34:33;;;;;;;8.4;5.9;;;;;;;-3.01;67.26563;96336.72;;;;
2020/11/22 02:35:34;;;;;;;8.4;5.9;;;;;;;-3.01;67.26563;96336.72;;;;
2020/11/22 02:36:35;;;;;;;8.4;5.9;;;;;;;-3.01;67.26563;96336.72;;;;
2020/11/22 02:37:35;;;;;;;7.3;5.05;;;;;;;-3.06;67.79688;96327.93;;;;
2020/11/22 02:38:36;;;;;;;7.3;5.05;;;;;;;-3.06;67.79688;96327.93;;;;
2020/11/22 02:39:36;;;;;;;7.3;5.05;;;;;;;-3.06;67.79688;96327.93;;;;
2020/11/22 02:40:37;;;;;;;7.3;5.05;;;;;;;-3.06;67.79688;96327.93;;;;
2020/11/22 02:41:37;;;;;;;7.3;5.05;;;;;;;-3.06;67.79688;96327.93;;;;
2020/11/22 02:42:38;;;;;;;7.3;5.05;;;;;;;-3.06;67.79688;96327.93;;;;
2020/11/22 02:43:38;;;;;;;7.3;5.05;;;;;;;-3.06;67.79688;96327.93;;;;
2020/11/22 02:44:39;;;;;;;7.3;5.05;;;;;;;-3.06;67.79688;96327.93;;;;
2020/11/22 02:45:39;;;;;;;7.3;5.05;;;;;;;-3.06;67.79688;96327.93;;;;
2020/11/22 02:46:40;;;;;;;7.3;5.05;;;;;;;-3.06;67.79688;96327.93;;;;
2020/11/22 02:47:40;;;;;;;7.3;5.05;;;;;;;-3.06;67.79688;96327.93;;;;
2020/11/22 02:48:41;;;;;;;7.600001;5.05;;;;;;;-3.06;68.01465;96329.67;;;;
2020/11/22 02:49:42;;;;;;;7.600001;5.05;;;;;;;-3.06;68.01465;96329.67;;;;
2020/11/22 02:50:42;;;;;;;7.600001;5.05;;;;;;;-3.06;68.01465;96329.67;;;;
2020/11/22 02:51:42;;;;;;;7.600001;5.05;;;;;;;-3.06;68.01465;96329.67;;;;
2020/11/22 02:52:43;;;;;;;7.600001;5.05;;;;;;;-3.06;68.01465;96329.67;;;;
2020/11/22 02:53:44;;;;;;;7.600001;5.05;;;;;;;-3.06;68.01465;96329.67;;;;
2020/11/22 02:54:44;;;;;;;7.600001;5.05;;;;;;;-3.06;68.01465;96329.67;;;;
2020/11/22 02:55:45;;;;;;;7.600001;5.05;;;;;;;-3.06;68.01465;96329.67;;;;
2020/11/22 02:56:45;;;;;;;7.600001;5.05;;;;;;;-3.06;68.01465;96329.67;;;;
2020/11/22 02:57:46;;;;;;;7.600001;5.05;;;;;;;-3.06;68.01465;96329.67;;;;
2020/11/22 02:58:46;;;;;;;7.600001;5.05;;;;;;;-3.06;68.01465;96329.67;;;;
2020/11/22 02:59:47;;;;;;;7.65;4.849999;;;;;;;-3.08;68.2832;96329.38;;;;
2020/11/22 03:00:47;;;;;;;7.65;4.849999;;;;;;;-3.08;68.2832;96329.38;;;;
2020/11/22 03:01:48;;;;;;;7.65;4.849999;;;;;;;-3.08;68.2832;96329.38;;;;
2020/11/22 03:02:48;;;;;;;7.65;4.849999;;;;;;;-3.08;68.2832;96329.38;;;;
2020/11/22 03:03:49;;;;;;;7.65;4.849999;;;;;;;-3.08;68.2832;96329.38;;;;
2020/11/22 03:04:49;;;;;;;7.65;4.849999;;;;;;;-3.08;68.2832;96329.38;;;;
2020/11/22 03:05:50;;;;;;;7.65;4.849999;;;;;;;-3.08;68.2832;96329.38;;;;
2020/11/22 03:06:50;;;;;;;7.65;4.849999;;;;;;;-3.08;68.2832;96329.38;;;;
2020/11/22 03:07:51;;;;;;;7.65;4.849999;;;;;;;-3.08;68.2832;96329.38;;;;
2020/11/22 03:08:52;;;;;;;7.65;4.849999;;;;;;;-3.08;68.2832;96329.38;;;;
2020/11/22 03:09:52;;;;;;;8.3;4.75;;;;;;;-3.16;68.65234;96318.19;;;;
2020/11/22 03:10:53;;;;;;;8.3;4.75;;;;;;;-3.16;68.65234;96318.19;;;;
2020/11/22 03:11:53;;;;;;;8.3;4.75;;;;;;;-3.16;68.65234;96318.19;;;;
2020/11/22 03:12:54;;;;;;;8.3;4.75;;;;;;;-3.16;68.65234;96318.19;;;;
2020/11/22 03:13:54;;;;;;;8.3;4.75;;;;;;;-3.16;68.65234;96318.19;;;;
2020/11/22 03:14:55;;;;;;;8.3;4.75;;;;;;;-3.16;68.65234;96318.19;;;;
2020/11/22 03:15:55;;;;;;;8.3;4.75;;;;;;;-3.16;68.65234;96318.19;;;;
2020/11/22 03:16:56;;;;;;;8.3;4.75;;;;;;;-3.16;68.65234;96318.19;;;;
2020/11/22 03:17:56;;;;;;;8.3;4.75;;;;;;;-3.16;68.65234;96318.19;;;;
2020/11/22 03:18:57;;;;;;;8.3;4.75;;;;;;;-3.16;68.65234;96318.19;;;;
2020/11/22 03:19:57;;;;;;;8.3;4.75;;;;;;;-3.16;68.65234;96318.19;;;;
2020/11/22 03:20:58;;;;;;;7.25;4.5;;;;;;;-3.22;69.09961;96309.89;;;;
2020/11/22 03:21:59;;;;;;;7.25;4.5;;;;;;;-3.22;69.09961;96309.89;;;;
2020/11/22 03:22:59;;;;;;;7.25;4.5;;;;;;;-3.22;69.09961;96309.89;;;;
2020/11/22 03:24:00;;;;;;;7.25;4.5;;;;;;;-3.22;69.09961;96309.89;;;;
2020/11/22 03:25:00;;;;;;;7.25;4.5;;;;;;;-3.22;69.09961;96309.89;;;;
2020/11/22 03:26:01;;;;;;;7.25;4.5;;;;;;;-3.22;69.09961;96309.89;;;;
2020/11/22 03:27:01;;;;;;;7.25;4.5;;;;;;;-3.22;69.09961;96309.89;;;;
2020/11/22 03:28:02;;;;;;;7.25;4.5;;;;;;;-3.22;69.09961;96309.89;;;;
2020/11/22 03:29:03;;;;;;;7.25;4.5;;;;;;;-3.22;69.09961;96309.89;;;;
2020/11/22 03:30:03;;;;;;;7.25;4.5;;;;;;;-3.22;69.09961;96309.89;;;;
2020/11/22 03:31:04;;;;;;;7.5;4.5;;;;;;;-3.3;69.39844;96301.28;;;;
2020/11/22 03:32:05;;;;;;;7.5;4.5;;;;;;;-3.3;69.39844;96301.28;;;;
2020/11/22 03:33:05;;;;;;;7.5;4.5;;;;;;;-3.3;69.39844;96301.28;;;;
2020/11/22 03:34:06;;;;;;;7.5;4.5;;;;;;;-3.3;69.39844;96301.28;;;;
2020/11/22 03:35:06;;;;;;;7.5;4.5;;;;;;;-3.3;69.39844;96301.28;;;;
2020/11/22 03:36:07;;;;;;;7.5;4.5;;;;;;;-3.3;69.39844;96301.28;;;;
2020/11/22 03:37:07;;;;;;;7.5;4.5;;;;;;;-3.3;69.39844;96301.28;;;;
2020/11/22 03:38:08;;;;;;;7.5;4.5;;;;;;;-3.3;69.39844;96301.28;;;;
2020/11/22 03:39:08;;;;;;;7.5;4.5;;;;;;;-3.3;69.39844;96301.28;;;;
2020/11/22 03:40:09;;;;;;;7.5;4.5;;;;;;;-3.3;69.39844;96301.28;;;;
2020/11/22 03:41:09;;;;;;;7.5;4.5;;;;;;;-3.3;69.39844;96301.28;;;;
2020/11/22 03:42:10;;;;;;;6.55;4.85;;;;;;;-3.35;69.69141;96299.1;;;;
2020/11/22 03:43:10;;;;;;;6.55;4.85;;;;;;;-3.35;69.69141;96299.1;;;;
2020/11/22 03:44:11;;;;;;;6.55;4.85;;;;;;;-3.35;69.69141;96299.1;;;;
2020/11/22 03:45:11;;;;;;;6.55;4.85;;;;;;;-3.35;69.69141;96299.1;;;;
2020/11/22 03:46:12;;;;;;;6.55;4.85;;;;;;;-3.35;69.69141;96299.1;;;;
2020/11/22 03:47:12;;;;;;;6.55;4.85;;;;;;;-3.35;69.69141;96299.1;;;;
2020/11/22 03:48:13;;;;;;;6.55;4.85;;;;;;;-3.35;69.69141;96299.1;;;;
2020/11/22 03:49:14;;;;;;;6.55;4.85;;;;;;;-3.35;69.69141;96299.1;;;;
2020/11/22 03:50:14;;;;;;;6.55;4.85;;;;;;;-3.35;69.69141;96299.1;;;;
2020/11/22 03:51:15;;;;;;;6.55;4.85;;;;;;;-3.35;69.69141;96299.1;;;;
2020/11/22 03:52:15;;;;;;;6.55;4.85;;;;;;;-3.35;69.69141;96299.1;;;;
2020/11/22 03:53:16;;;;;;;6;4.35;;;;;;;-3.4;70.03418;96307.03;;;;
2020/11/22 03:54:16;;;;;;;6;4.35;;;;;;;-3.4;70.03418;96307.03;;;;
2020/11/22 03:55:17;;;;;;;6;4.35;;;;;;;-3.4;70.03418;96307.03;;;;
2020/11/22 03:56:17;;;;;;;6;4.35;;;;;;;-3.4;70.03418;96307.03;;;;
2020/11/22 03:57:18;;;;;;;6;4.35;;;;;;;-3.4;70.03418;96307.03;;;;
2020/11/22 03:58:18;;;;;;;6;4.35;;;;;;;-3.4;70.03418;96307.03;;;;
2020/11/22 03:59:19;;;;;;;6;4.35;;;;;;;-3.4;70.03418;96307.03;;;;
2020/11/22 04:00:20;;;;;;;6;4.35;;;;;;;-3.4;70.03418;96307.03;;;;
2020/11/22 04:01:20;;;;;;;6;4.35;;;;;;;-3.4;70.03418;96307.03;;;;
2020/11/22 04:02:21;;;;;;;6;4.35;;;;;;;-3.4;70.03418;96307.03;;;;
2020/11/22 04:03:21;;;;;;;5.350001;4.05;;;;;;;-3.45;70.31543;96305.25;;;;
2020/11/22 04:04:22;;;;;;;5.350001;4.05;;;;;;;-3.45;70.31543;96305.25;;;;
2020/11/22 04:05:22;;;;;;;5.350001;4.05;;;;;;;-3.45;70.31543;96305.25;;;;
2020/11/22 04:06:23;;;;;;;5.350001;4.05;;;;;;;-3.45;70.31543;96305.25;;;;
2020/11/22 04:07:23;;;;;;;5.350001;4.05;;;;;;;-3.45;70.31543;96305.25;;;;
2020/11/22 04:08:24;;;;;;;5.350001;4.05;;;;;;;-3.45;70.31543;96305.25;;;;
2020/11/22 04:09:24;;;;;;;5.350001;4.05;;;;;;;-3.45;70.31543;96305.25;;;;
2020/11/22 04:10:25;;;;;;;5.350001;4.05;;;;;;;-3.45;70.31543;96305.25;;;;
2020/11/22 04:11:25;;;;;;;5.350001;4.05;;;;;;;-3.45;70.31543;96305.25;;;;
2020/11/22 04:12:26;;;;;;;5.350001;4.05;;;;;;;-3.45;70.31543;96305.25;;;;
2020/11/22 04:13:27;;;;;;;5.350001;4.05;;;;;;;-3.45;70.31543;96305.25;;;;
2020/11/22 04:14:27;;;;;;;5.65;3.85;;;;;;;-3.42;70.6123;96305.83;;;;
2020/11/22 04:15:28;;;;;;;5.65;3.85;;;;;;;-3.42;70.6123;96305.83;;;;
2020/11/22 04:16:28;;;;;;;5.65;3.85;;;;;;;-3.42;70.6123;96305.83;;;;
2020/11/22 04:17:29;;;;;;;5.65;3.85;;;;;;;-3.42;70.6123;96305.83;;;;
2020/11/22 04:18:29;;;;;;;5.65;3.85;;;;;;;-3.42;70.6123;96305.83;;;;
2020/11/22 04:19:30;;;;;;;5.65;3.85;;;;;;;-3.42;70.6123;96305.83;;;;
2020/11/22 04:20:30;;;;;;;5.65;3.85;;;;;;;-3.42;70.6123;96305.83;;;;
2020/11/22 04:21:31;;;;;;;5.65;3.85;;;;;;;-3.42;70.6123;96305.83;;;;
2020/11/22 04:22:31;;;;;;;5.65;3.85;;;;;;;-3.42;70.6123;96305.83;;;;
2020/11/22 04:23:32;;;;;;;5.65;3.85;;;;;;;-3.42;70.6123;96305.83;;;;
2020/11/22 04:24:32;;;;;;;3.8;2.900001;;;;;;;-3.34;71.05078;96306.03;;;;
2020/11/22 04:25:33;;;;;;;3.8;2.900001;;;;;;;-3.34;71.05078;96306.03;;;;
2020/11/22 04:26:33;;;;;;;3.8;2.900001;;;;;;;-3.34;71.05078;96306.03;;;;
2020/11/22 04:27:34;;;;;;;3.8;2.900001;;;;;;;-3.34;71.05078;96306.03;;;;
2020/11/22 04:28:34;;;;;;;3.8;2.900001;;;;;;;-3.34;71.05078;96306.03;;;;
2020/11/22 04:29:35;;;;;;;3.8;2.900001;;;;;;;-3.34;71.05078;96306.03;;;;
2020/11/22 04:30:35;;;;;;;3.8;2.900001;;;;;;;-3.34;71.05078;96306.03;;;;
2020/11/22 04:31:36;;;;;;;3.8;2.900001;;;;;;;-3.34;71.05078;96306.03;;;;
2020/11/22 04:32:39;;;;;;;3.8;2.900001;;;;;;;-3.34;71.05078;96306.03;;;;
2020/11/22 04:33:40;;;;;;;3.8;2.900001;;;;;;;-3.34;71.05078;96306.03;;;;
2020/11/22 04:34:40;;;;;;;3.8;2.900001;;;;;;;-3.34;71.05078;96306.03;;;;
2020/11/22 04:35:41;;;;;;;4.35;2.95;;;;;;;-3.26;71.05371;96313.23;;;;
2020/11/22 04:36:41;;;;;;;4.35;2.95;;;;;;;-3.26;71.05371;96313.23;;;;
2020/11/22 04:37:42;;;;;;;4.35;2.95;;;;;;;-3.26;71.05371;96313.23;;;;
2020/11/22 04:38:43;;;;;;;4.35;2.95;;;;;;;-3.26;71.05371;96313.23;;;;
2020/11/22 04:39:43;;;;;;;4.35;2.95;;;;;;;-3.26;71.05371;96313.23;;;;
2020/11/22 04:40:44;;;;;;;4.35;2.95;;;;;;;-3.26;71.05371;96313.23;;;;
2020/11/22 04:41:44;;;;;;;4.35;2.95;;;;;;;-3.26;71.05371;96313.23;;;;
2020/11/22 04:42:49;;;;;;;4.35;2.95;;;;;;;-3.26;71.05371;96313.23;;;;
2020/11/22 04:43:51;;;;;;;4.35;2.95;;;;;;;-3.26;71.05371;96313.23;;;;
2020/11/22 04:44:54;;;;;;;4.35;2.95;;;;;;;-3.26;71.05371;96313.23;;;;
2020/11/22 04:45:55;;;;;;;3.65;2.95;;;;;;;-3.25;71.11719;96313.67;;;;
2020/11/22 04:46:57;;;;;;;3.65;2.95;;;;;;;-3.25;71.11719;96313.67;;;;
2020/11/22 04:47:58;;;;;;;3.65;2.95;;;;;;;-3.25;71.11719;96313.67;;;;
2020/11/22 04:48:58;;;;;;;3.65;2.95;;;;;;;-3.25;71.11719;96313.67;;;;
2020/11/22 04:50:01;;;;;;;3.65;2.95;;;;;;;-3.25;71.11719;96313.67;;;;
2020/11/22 04:51:02;;;;;;;3.65;2.95;;;;;;;-3.25;71.11719;96313.67;;;;
2020/11/22 04:52:03;;;;;;;3.65;2.95;;;;;;;-3.25;71.11719;96313.67;;;;
2020/11/22 04:53:04;;;;;;;3.65;2.95;;;;;;;-3.25;71.11719;96313.67;;;;
2020/11/22 04:54:04;;;;;;;3.65;2.95;;;;;;;-3.25;71.11719;96313.67;;;;
2020/11/22 04:55:05;;;;;;;3.65;2.95;;;;;;;-3.25;71.11719;96313.67;;;;
2020/11/22 04:56:05;;;;;;;3.65;2.95;;;;;;;-3.25;71.11719;96313.67;;;;
2020/11/22 04:57:06;;;;;;;4.149999;3.1;;;;;;;-3.36;71.34668;96305.78;;;;
2020/11/22 04:58:06;;;;;;;4.149999;3.1;;;;;;;-3.36;71.34668;96305.78;;;;
2020/11/22 04:59:09;;;;;;;4.149999;3.1;;;;;;;-3.36;71.34668;96305.78;;;;
2020/11/22 05:00:09;;;;;;;4.149999;3.1;;;;;;;-3.36;71.34668;96305.78;;;;
2020/11/22 05:01:23;;;;;;;4.149999;3.1;;;;;;;-3.36;71.34668;96305.78;;;;
2020/11/22 05:02:25;;;;;;;4.149999;3.1;;;;;;;-3.36;71.34668;96305.78;;;;
2020/11/22 05:03:25;;;;;;;4.149999;3.1;;;;;;;-3.36;71.34668;96305.78;;;;
2020/11/22 05:04:26;;;;;;;4.149999;3.1;;;;;;;-3.36;71.34668;96305.78;;;;
2020/11/22 05:05:26;;;;;;;4.149999;3.1;;;;;;;-3.36;71.34668;96305.78;;;;
2020/11/22 05:06:28;;;;;;;4.149999;3.1;;;;;;;-3.36;71.34668;96305.78;;;;
2020/11/22 05:07:30;;;;;;;6.349999;3.1;;;;;;;-3.43;71.68945;96320.4;;;;
2020/11/22 05:08:31;;;;;;;6.349999;3.1;;;;;;;-3.43;71.68945;96320.4;;;;
2020/11/22 05:09:31;;;;;;;6.349999;3.1;;;;;;;-3.43;71.68945;96320.4;;;;
2020/11/22 05:10:32;;;;;;;6.349999;3.1;;;;;;;-3.43;71.68945;96320.4;;;;
2020/11/22 05:11:33;;;;;;;6.349999;3.1;;;;;;;-3.43;71.68945;96320.4;;;;
2020/11/22 05:12:33;;;;;;;6.349999;3.1;;;;;;;-3.43;71.68945;96320.4;;;;
2020/11/22 05:13:34;;;;;;;6.349999;3.1;;;;;;;-3.43;71.68945;96320.4;;;;
2020/11/22 05:14:34;;;;;;;6.349999;3.1;;;;;;;-3.43;71.68945;96320.4;;;;
2020/11/22 05:15:35;;;;;;;6.349999;3.1;;;;;;;-3.43;71.68945;96320.4;;;;
2020/11/22 05:16:38;;;;;;;6.349999;3.1;;;;;;;-3.43;71.68945;96320.4;;;;
2020/11/22 05:17:54;;;;;;;4.25;2.7;;;;;;;-3.47;72.03613;96333.49;;;;
2020/11/22 05:19:00;;;;;;;4.25;2.7;;;;;;;-3.47;72.03613;96333.49;;;;
2020/11/22 05:20:09;;;;;;;4.25;2.7;;;;;;;-3.47;72.03613;96333.49;;;;
2020/11/22 05:21:10;;;;;;;4.25;2.7;;;;;;;-3.47;72.03613;96333.49;;;;
2020/11/22 05:22:15;;;;;;;4.25;2.7;;;;;;;-3.47;72.03613;96333.49;;;;
2020/11/22 05:23:27;;;;;;;4.25;2.7;;;;;;;-3.47;72.03613;96333.49;;;;
2020/11/22 05:24:27;;;;;;;4.25;2.7;;;;;;;-3.47;72.03613;96333.49;;;;
2020/11/22 05:25:29;;;;;;;4.25;2.7;;;;;;;-3.47;72.03613;96333.49;;;;
2020/11/22 05:26:29;;;;;;;4.25;2.7;;;;;;;-3.47;72.03613;96333.49;;;;
2020/11/22 05:27:30;;;;;;;4.25;2.7;;;;;;;-3.47;72.03613;96333.49;;;;
2020/11/22 05:28:30;;;;;;;3.8;2.900001;;;;;;;-3.5;72.28613;96323.66;;;;
2020/11/22 05:29:31;;;;;;;3.8;2.900001;;;;;;;-3.5;72.28613;96323.66;;;;
2020/11/22 05:30:31;;;;;;;3.8;2.900001;;;;;;;-3.5;72.28613;96323.66;;;;
2020/11/22 05:31:32;;;;;;;3.8;2.900001;;;;;;;-3.5;72.28613;96323.66;;;;
2020/11/22 05:32:35;;;;;;;3.8;2.900001;;;;;;;-3.5;72.28613;96323.66;;;;
2020/11/22 05:33:35;;;;;;;3.8;2.900001;;;;;;;-3.5;72.28613;96323.66;;;;
2020/11/22 05:34:38;;;;;;;3.8;2.900001;;;;;;;-3.5;72.28613;96323.66;;;;
2020/11/22 05:35:40;;;;;;;3.8;2.900001;;;;;;;-3.5;72.28613;96323.66;;;;
2020/11/22 05:36:43;;;;;;;3.8;2.900001;;;;;;;-3.5;72.28613;96323.66;;;;